createdAt,value
2022-09-20T00:00:36.173Z,9.94
2022-09-20T00:01:36.236Z,9.87
2022-09-20T00:02:36.183Z,9.94
2022-09-20T00:03:36.147Z,9.81
2022-09-20T00:04:36.187Z,9.83
2022-09-20T00:05:36.149Z,9.93
2022-09-20T00:06:36.167Z,9.96
2022-09-20T00:07:36.186Z,10.02
2022-09-20T00:08:36.101Z,10.03
2022-09-20T00:09:36.094Z,9.94
2022-09-20T00:10:36.106Z,9.99
2022-09-20T00:11:36.099Z,9.98
2022-09-20T00:12:36.310Z,10.09
2022-09-20T00:13:36.102Z,10.10
2022-09-20T00:14:36.490Z,10.12
2022-09-20T00:15:36.067Z,10.12
2022-09-20T00:16:36.198Z,10.12
2022-09-20T00:17:36.042Z,10.21
2022-09-20T00:18:36.049Z,10.12
2022-09-20T00:19:36.057Z,10.16
2022-09-20T00:20:36.019Z,10.26
2022-09-20T00:21:36.051Z,10.17
2022-09-20T00:22:36.008Z,10.10
2022-09-20T00:23:36.042Z,10.09
2022-09-20T00:24:36.022Z,10.10
2022-09-20T00:25:36.018Z,10.12
2022-09-20T00:26:35.986Z,10.09
2022-09-20T00:27:36.040Z,10.12
2022-09-20T00:28:35.976Z,10.12
2022-09-20T00:29:35.966Z,10.08
2022-09-20T00:30:35.978Z,10.01
2022-09-20T00:31:35.987Z,9.91
2022-09-20T00:32:35.948Z,9.84
2022-09-20T00:33:35.945Z,10.03
2022-09-20T00:34:35.927Z,9.98
2022-09-20T00:35:35.922Z,10.03
2022-09-20T00:36:35.937Z,9.94
2022-09-20T00:37:36.004Z,9.94
2022-09-20T00:38:35.903Z,9.85
2022-09-20T00:39:35.910Z,9.78
2022-09-20T00:40:35.980Z,9.78
2022-09-20T00:41:35.881Z,9.73
2022-09-20T00:42:35.924Z,9.84
2022-09-20T00:43:35.865Z,9.87
2022-09-20T00:44:35.872Z,9.73
2022-09-20T00:45:35.929Z,9.73
2022-09-20T00:46:35.900Z,9.67
2022-09-20T00:47:36.021Z,9.75
2022-09-20T00:48:35.850Z,9.75
2022-09-20T00:49:35.832Z,9.83
2022-09-20T00:50:36.343Z,9.81
2022-09-20T00:51:35.831Z,9.85
2022-09-20T00:52:35.806Z,9.77
2022-09-20T00:53:35.822Z,9.78
2022-09-20T00:54:35.816Z,9.77
2022-09-20T00:55:35.809Z,9.77
2022-09-20T00:56:35.790Z,9.72
2022-09-20T00:57:35.764Z,9.66
2022-09-20T00:58:35.773Z,9.80
2022-09-20T00:59:35.757Z,9.69
2022-09-20T01:00:35.756Z,9.80
2022-09-20T01:01:35.811Z,9.83
2022-09-20T01:02:35.815Z,9.81
2022-09-20T01:03:35.731Z,9.81
2022-09-20T01:04:35.798Z,9.90
2022-09-20T01:05:35.744Z,9.85
2022-09-20T01:06:35.709Z,9.88
2022-09-20T01:07:35.730Z,9.88
2022-09-20T01:08:35.706Z,9.98
2022-09-20T01:09:35.711Z,9.93
2022-09-20T01:10:35.681Z,9.93
2022-09-20T01:11:35.674Z,9.91
2022-09-20T01:12:36.119Z,9.84
2022-09-20T01:13:35.692Z,9.93
2022-09-20T01:14:35.695Z,9.96
2022-09-20T01:15:35.640Z,9.85
2022-09-20T01:16:35.739Z,9.94
2022-09-20T01:17:35.650Z,9.84
2022-09-20T01:18:35.624Z,9.91
2022-09-20T01:19:35.620Z,9.78
2022-09-20T01:20:35.611Z,9.88
2022-09-20T01:21:35.606Z,9.87
2022-09-20T01:22:35.598Z,9.80
2022-09-20T01:23:35.616Z,9.83
2022-09-20T01:24:35.592Z,9.69
2022-09-20T01:25:35.603Z,9.70
2022-09-20T01:26:35.603Z,9.70
2022-09-20T01:27:35.567Z,9.75
2022-09-20T01:28:36.434Z,9.77
2022-09-20T01:29:35.543Z,9.85
2022-09-20T01:30:35.557Z,9.80
2022-09-20T01:31:35.596Z,9.75
2022-09-20T01:32:36.530Z,9.67
2022-09-20T01:33:35.530Z,9.75
2022-09-20T01:34:35.519Z,9.70
2022-09-20T01:35:35.536Z,9.80
2022-09-20T01:36:35.504Z,9.80
2022-09-20T01:37:35.505Z,9.83
2022-09-20T01:38:35.516Z,9.90
2022-09-20T01:39:35.483Z,9.77
2022-09-20T01:40:35.593Z,9.83
2022-09-20T01:41:35.493Z,9.81
2022-09-20T01:42:35.491Z,9.80
2022-09-20T01:43:35.471Z,9.80
2022-09-20T01:44:35.465Z,9.69
2022-09-20T01:45:35.513Z,9.66
2022-09-20T01:46:35.504Z,9.63
2022-09-20T01:47:35.463Z,9.55
2022-09-20T01:48:35.416Z,9.52
2022-09-20T01:49:35.494Z,9.54
2022-09-20T01:50:35.431Z,9.54
2022-09-20T01:51:35.415Z,9.55
2022-09-20T01:52:35.399Z,9.51
2022-09-20T01:53:35.394Z,9.37
2022-09-20T01:54:35.389Z,9.51
2022-09-20T01:55:35.389Z,9.42
2022-09-20T01:56:35.384Z,9.47
2022-09-20T01:57:35.407Z,9.34
2022-09-20T01:58:35.378Z,9.42
2022-09-20T01:59:35.340Z,9.47
2022-09-20T02:00:35.368Z,9.45
2022-09-20T02:01:36.118Z,9.42
2022-09-20T02:02:35.481Z,9.44
2022-09-20T02:03:35.329Z,9.50
2022-09-20T02:04:35.329Z,9.54
2022-09-20T02:05:35.328Z,9.48
2022-09-20T02:06:35.331Z,9.45
2022-09-20T02:07:35.318Z,9.60
2022-09-20T02:08:35.362Z,9.59
2022-09-20T02:09:35.281Z,9.54
2022-09-20T02:10:35.332Z,9.66
2022-09-20T02:11:35.262Z,9.55
2022-09-20T02:12:35.290Z,9.42
2022-09-20T02:13:35.981Z,9.36
2022-09-20T02:14:35.249Z,9.45
2022-09-20T02:15:35.265Z,9.40
2022-09-20T02:16:35.330Z,9.36
2022-09-20T02:17:35.261Z,9.47
2022-09-20T02:18:35.247Z,9.48
2022-09-20T02:19:35.262Z,9.50
2022-09-20T02:20:35.221Z,9.70
2022-09-20T02:21:35.294Z,9.51
2022-09-20T02:22:35.236Z,9.65
2022-09-20T02:23:35.187Z,9.70
2022-09-20T02:24:35.253Z,9.75
2022-09-20T02:25:35.210Z,9.67
2022-09-20T02:26:35.218Z,9.73
2022-09-20T02:27:35.181Z,9.72
2022-09-20T02:28:35.203Z,9.69
2022-09-20T02:29:35.262Z,9.77
2022-09-20T02:30:35.165Z,9.67
2022-09-20T02:31:35.231Z,9.70
2022-09-20T02:32:35.129Z,9.60
2022-09-20T02:33:35.912Z,9.57
2022-09-20T02:34:35.104Z,9.37
2022-09-20T02:35:36.141Z,9.42
2022-09-20T02:36:35.106Z,9.50
2022-09-20T02:37:35.099Z,9.45
2022-09-20T02:38:35.085Z,9.51
2022-09-20T02:39:35.089Z,9.48
2022-09-20T02:40:35.178Z,9.60
2022-09-20T02:41:35.071Z,9.52
2022-09-20T02:42:35.095Z,9.60
2022-09-20T02:43:35.111Z,9.54
2022-09-20T02:44:35.061Z,9.67
2022-09-20T02:45:35.234Z,9.59
2022-09-20T02:46:35.028Z,9.63
2022-09-20T02:47:35.032Z,9.57
2022-09-20T02:48:35.068Z,9.62
2022-09-20T02:49:35.001Z,9.63
2022-09-20T02:50:35.031Z,9.70
2022-09-20T02:51:35.142Z,9.63
2022-09-20T02:52:35.176Z,9.69
2022-09-20T02:53:35.048Z,9.73
2022-09-20T02:54:34.987Z,9.70
2022-09-20T02:55:34.955Z,9.78
2022-09-20T02:56:34.958Z,9.75
2022-09-20T02:57:34.946Z,9.81
2022-09-20T02:58:36.242Z,9.85
2022-09-20T02:59:34.934Z,9.66
2022-09-20T03:00:34.919Z,9.84
2022-09-20T03:01:35.044Z,9.80
2022-09-20T03:02:35.019Z,9.78
2022-09-20T03:03:34.898Z,9.73
2022-09-20T03:04:34.919Z,9.85
2022-09-20T03:05:34.891Z,9.80
2022-09-20T03:06:34.924Z,9.84
2022-09-20T03:07:34.908Z,9.77
2022-09-20T03:08:34.889Z,9.81
2022-09-20T03:09:34.866Z,9.75
2022-09-20T03:10:34.939Z,9.80
2022-09-20T03:11:34.866Z,9.87
2022-09-20T03:12:34.846Z,9.85
2022-09-20T03:13:34.841Z,9.83
2022-09-20T03:14:34.949Z,9.83
2022-09-20T03:15:34.892Z,9.75
2022-09-20T03:16:34.923Z,9.67
2022-09-20T03:17:34.845Z,9.78
2022-09-20T03:18:34.791Z,9.77
2022-09-20T03:19:34.806Z,9.83
2022-09-20T03:20:34.909Z,9.80
2022-09-20T03:21:34.788Z,9.83
2022-09-20T03:22:34.846Z,9.80
2022-09-20T03:23:35.279Z,9.72
2022-09-20T03:24:34.831Z,9.73
2022-09-20T03:25:34.756Z,9.77
2022-09-20T03:26:34.787Z,9.73
2022-09-20T03:27:34.753Z,9.63
2022-09-20T03:28:35.162Z,9.72
2022-09-20T03:29:34.719Z,9.69
2022-09-20T03:30:34.717Z,9.63
2022-09-20T03:31:34.817Z,9.73
2022-09-20T03:32:34.733Z,9.69
2022-09-20T03:33:34.721Z,9.70
2022-09-20T03:34:34.807Z,9.77
2022-09-20T03:35:34.681Z,9.52
2022-09-20T03:36:34.670Z,9.66
2022-09-20T03:37:34.711Z,9.52
2022-09-20T03:38:34.679Z,9.57
2022-09-20T03:39:34.651Z,9.54
2022-09-20T03:40:34.741Z,9.54
2022-09-20T03:41:34.674Z,9.55
2022-09-20T03:42:34.652Z,9.66
2022-09-20T03:43:34.645Z,9.69
2022-09-20T03:44:34.669Z,9.66
2022-09-20T03:45:34.803Z,9.72
2022-09-20T03:46:34.606Z,9.69
2022-09-20T03:47:34.598Z,9.67
2022-09-20T03:48:34.593Z,9.77
2022-09-20T03:49:34.610Z,9.73
2022-09-20T03:50:34.572Z,9.60
2022-09-20T03:51:35.055Z,9.54
2022-09-20T03:52:34.556Z,9.60
2022-09-20T03:53:34.559Z,9.69
2022-09-20T03:54:34.566Z,9.65
2022-09-20T03:55:34.537Z,9.59
2022-09-20T03:56:34.552Z,9.54
2022-09-20T03:57:35.162Z,9.52
2022-09-20T03:58:34.522Z,9.55
2022-09-20T03:59:34.637Z,9.62
2022-09-20T04:00:34.503Z,9.65
2022-09-20T04:01:34.592Z,9.63
2022-09-20T04:02:34.651Z,9.66
2022-09-20T04:03:34.485Z,9.63
2022-09-20T04:04:34.704Z,9.65
2022-09-20T04:05:34.492Z,9.62
2022-09-20T04:06:34.650Z,9.63
2022-09-20T04:07:34.464Z,9.55
2022-09-20T04:08:38.076Z,9.66
2022-09-20T04:09:35.478Z,9.63
2022-09-20T04:10:34.452Z,9.65
2022-09-20T04:11:34.440Z,9.66
2022-09-20T04:12:34.421Z,9.63
2022-09-20T04:13:34.443Z,9.55
2022-09-20T04:14:34.417Z,9.60
2022-09-20T04:15:35.807Z,9.51
2022-09-20T04:16:34.463Z,9.63
2022-09-20T04:17:34.391Z,9.52
2022-09-20T04:18:34.381Z,9.50
2022-09-20T04:19:34.381Z,9.44
2022-09-20T04:20:34.402Z,9.45
2022-09-20T04:21:34.395Z,9.48
2022-09-20T04:22:34.366Z,9.47
2022-09-20T04:23:34.359Z,9.44
2022-09-20T04:24:34.377Z,9.45
2022-09-20T04:25:34.344Z,9.54
2022-09-20T04:26:34.349Z,9.42
2022-09-20T04:27:34.349Z,9.51
2022-09-20T04:28:34.327Z,9.47
2022-09-20T04:29:34.316Z,9.51
2022-09-20T04:30:34.300Z,9.54
2022-09-20T04:31:55.385Z,9.50
2022-09-20T04:32:34.286Z,9.59
2022-09-20T04:33:34.289Z,9.52
2022-09-20T04:34:34.282Z,9.59
2022-09-20T04:35:34.273Z,9.59
2022-09-20T04:36:34.270Z,9.66
2022-09-20T04:37:34.306Z,9.65
2022-09-20T04:38:34.247Z,9.66
2022-09-20T04:39:34.253Z,9.63
2022-09-20T04:40:34.343Z,9.67
2022-09-20T04:41:34.233Z,9.60
2022-09-20T04:42:34.215Z,9.65
2022-09-20T04:43:34.230Z,9.63
2022-09-20T04:44:34.202Z,9.72
2022-09-20T04:45:34.279Z,9.73
2022-09-20T04:46:34.196Z,9.75
2022-09-20T04:47:34.282Z,9.80
2022-09-20T04:48:34.183Z,9.80
2022-09-20T04:49:34.181Z,9.75
2022-09-20T04:50:34.166Z,9.73
2022-09-20T04:51:34.162Z,9.81
2022-09-20T04:52:34.151Z,9.81
2022-09-20T04:53:35.873Z,9.73
2022-09-20T04:54:34.149Z,9.81
2022-09-20T04:55:34.190Z,9.85
2022-09-20T04:56:34.121Z,9.90
2022-09-20T04:57:34.122Z,9.85
2022-09-20T04:58:34.120Z,9.80
2022-09-20T04:59:34.114Z,9.83
2022-09-20T05:00:34.099Z,9.93
2022-09-20T05:01:34.150Z,9.84
2022-09-20T05:02:34.184Z,9.88
2022-09-20T05:03:34.079Z,9.93
2022-09-20T05:04:34.067Z,9.84
2022-09-20T05:05:34.428Z,10.01
2022-09-20T05:06:34.068Z,9.85
2022-09-20T05:07:34.069Z,9.91
2022-09-20T05:08:34.044Z,9.99
2022-09-20T05:09:34.049Z,9.93
2022-09-20T05:10:34.036Z,10.01
2022-09-20T05:11:34.027Z,9.93
2022-09-20T05:12:34.035Z,10.01
2022-09-20T05:13:34.021Z,9.83
2022-09-20T05:14:34.000Z,9.80
2022-09-20T05:15:34.428Z,9.77
2022-09-20T05:16:35.299Z,9.77
2022-09-20T05:17:33.989Z,9.85
2022-09-20T05:18:33.979Z,9.77
2022-09-20T05:19:33.973Z,9.80
2022-09-20T05:20:34.015Z,9.77
2022-09-20T05:21:33.964Z,9.65
2022-09-20T05:22:33.992Z,9.69
2022-09-20T05:23:33.951Z,9.72
2022-09-20T05:24:33.935Z,9.60
2022-09-20T05:25:33.957Z,9.60
2022-09-20T05:26:33.923Z,9.67
2022-09-20T05:27:33.920Z,9.70
2022-09-20T05:28:33.907Z,9.73
2022-09-20T05:29:33.937Z,9.66
2022-09-20T05:30:33.911Z,9.75
2022-09-20T05:31:34.019Z,9.73
2022-09-20T05:32:33.889Z,9.69
2022-09-20T05:33:33.865Z,9.75
2022-09-20T05:34:33.867Z,9.88
2022-09-20T05:35:33.855Z,9.73
2022-09-20T05:36:41.117Z,9.87
2022-09-20T05:37:33.849Z,9.81
2022-09-20T05:38:34.176Z,9.80
2022-09-20T05:39:33.840Z,9.83
2022-09-20T05:40:33.915Z,9.83
2022-09-20T05:41:33.870Z,9.84
2022-09-20T05:42:33.807Z,9.98
2022-09-20T05:43:33.828Z,9.91
2022-09-20T05:44:33.802Z,9.88
2022-09-20T05:45:34.761Z,9.90
2022-09-20T05:46:33.788Z,9.91
2022-09-20T05:47:33.807Z,10.01
2022-09-20T05:48:33.779Z,10.08
2022-09-20T05:49:33.779Z,9.98
2022-09-20T05:50:33.762Z,10.05
2022-09-20T05:51:33.761Z,10.01
2022-09-20T05:52:33.763Z,10.06
2022-09-20T05:53:33.782Z,10.03
2022-09-20T05:54:34.221Z,10.17
2022-09-20T05:55:33.754Z,10.20
2022-09-20T05:56:33.718Z,10.24
2022-09-20T05:57:33.740Z,10.17
2022-09-20T05:58:33.711Z,10.30
2022-09-20T05:59:33.731Z,10.12
2022-09-20T06:00:33.698Z,10.17
2022-09-20T06:01:33.741Z,10.27
2022-09-20T06:02:33.733Z,10.20
2022-09-20T06:03:33.720Z,10.12
2022-09-20T06:04:33.661Z,10.24
2022-09-20T06:05:34.112Z,10.18
2022-09-20T06:06:33.641Z,10.14
2022-09-20T06:07:33.671Z,10.23
2022-09-20T06:08:33.642Z,10.26
2022-09-20T06:09:34.060Z,10.26
2022-09-20T06:10:33.618Z,10.31
2022-09-20T06:11:33.661Z,10.30
2022-09-20T06:12:33.605Z,10.36
2022-09-20T06:13:33.621Z,10.39
2022-09-20T06:14:33.600Z,10.39
2022-09-20T06:15:34.147Z,10.28
2022-09-20T06:16:33.620Z,10.16
2022-09-20T06:17:33.568Z,10.20
2022-09-20T06:18:33.573Z,10.18
2022-09-20T06:19:33.554Z,10.10
2022-09-20T06:20:33.625Z,10.23
2022-09-20T06:21:33.535Z,10.20
2022-09-20T06:22:33.540Z,10.34
2022-09-20T06:23:33.526Z,10.31
2022-09-20T06:24:33.513Z,10.30
2022-09-20T06:25:33.514Z,10.24
2022-09-20T06:26:33.519Z,10.26
2022-09-20T06:27:33.496Z,10.24
2022-09-20T06:28:33.511Z,10.35
2022-09-20T06:29:33.535Z,10.42
2022-09-20T06:30:33.524Z,10.41
2022-09-20T06:31:33.470Z,10.41
2022-09-20T06:32:33.468Z,10.36
2022-09-20T06:33:33.464Z,10.49
2022-09-20T06:34:33.480Z,10.45
2022-09-20T06:35:33.443Z,10.54
2022-09-20T06:36:33.431Z,10.52
2022-09-20T06:37:33.449Z,10.67
2022-09-20T06:38:33.835Z,10.62
2022-09-20T06:39:33.459Z,10.65
2022-09-20T06:40:33.434Z,10.70
2022-09-20T06:41:33.395Z,10.70
2022-09-20T06:42:33.392Z,10.76
2022-09-20T06:43:33.388Z,10.72
2022-09-20T06:44:34.299Z,10.67
2022-09-20T06:45:33.478Z,10.73
2022-09-20T06:46:33.361Z,10.76
2022-09-20T06:47:38.532Z,10.87
2022-09-20T06:48:33.337Z,10.85
2022-09-20T06:49:33.337Z,10.87
2022-09-20T06:50:33.340Z,10.85
2022-09-20T06:51:33.340Z,10.91
2022-09-20T06:52:33.344Z,10.93
2022-09-20T06:53:33.313Z,10.93
2022-09-20T06:54:33.315Z,10.91
2022-09-20T06:55:33.313Z,11.00
2022-09-20T06:56:33.717Z,10.97
2022-09-20T06:57:33.283Z,11.00
2022-09-20T06:58:33.265Z,11.05
2022-09-20T06:59:33.275Z,11.15
2022-09-20T07:00:33.691Z,11.15
2022-09-20T07:01:33.322Z,11.25
2022-09-20T07:02:33.295Z,11.31
2022-09-20T07:03:33.257Z,11.40
2022-09-20T07:04:33.228Z,11.34
2022-09-20T07:05:33.238Z,11.41
2022-09-20T07:06:33.808Z,11.51
2022-09-20T07:07:33.224Z,11.49
2022-09-20T07:08:33.253Z,11.52
2022-09-20T07:09:33.195Z,11.62
2022-09-20T07:10:33.193Z,11.37
2022-09-20T07:11:33.775Z,11.45
2022-09-20T07:12:33.173Z,11.43
2022-09-20T07:13:33.169Z,11.38
2022-09-20T07:14:33.157Z,11.43
2022-09-20T07:15:33.164Z,11.27
2022-09-20T07:16:33.210Z,11.19
2022-09-20T07:17:33.165Z,11.34
2022-09-20T07:18:33.121Z,11.43
2022-09-20T07:19:33.152Z,11.38
2022-09-20T07:20:33.122Z,11.49
2022-09-20T07:21:33.107Z,11.97
2022-09-20T07:22:33.106Z,12.25
2022-09-20T07:23:33.102Z,12.29
2022-09-20T07:24:33.084Z,12.33
2022-09-20T07:25:33.097Z,12.53
2022-09-20T07:26:33.075Z,12.62
2022-09-20T07:27:33.066Z,12.61
2022-09-20T07:28:33.086Z,12.40
2022-09-20T07:29:33.056Z,12.29
2022-09-20T07:30:33.053Z,12.32
2022-09-20T07:31:33.066Z,12.40
2022-09-20T07:32:33.031Z,12.55
2022-09-20T07:33:33.056Z,12.61
2022-09-20T07:34:33.033Z,12.51
2022-09-20T07:35:33.012Z,12.53
2022-09-20T07:36:33.013Z,12.41
2022-09-20T07:37:36.998Z,12.36
2022-09-20T07:38:32.985Z,12.23
2022-09-20T07:39:32.994Z,12.32
2022-09-20T07:40:33.010Z,12.32
2022-09-20T07:41:33.012Z,12.25
2022-09-20T07:42:32.965Z,12.21
2022-09-20T07:43:32.973Z,12.15
2022-09-20T07:44:32.950Z,12.04
2022-09-20T07:45:32.989Z,12.03
2022-09-20T07:46:32.944Z,12.07
2022-09-20T07:47:32.932Z,12.05
2022-09-20T07:48:32.937Z,12.14
2022-09-20T07:49:33.779Z,12.08
2022-09-20T07:50:32.902Z,12.10
2022-09-20T07:51:32.907Z,12.11
2022-09-20T07:52:32.900Z,12.10
2022-09-20T07:53:32.885Z,12.04
2022-09-20T07:54:32.898Z,12.08
2022-09-20T07:55:32.878Z,11.99
2022-09-20T07:56:32.865Z,12.00
2022-09-20T07:57:32.865Z,11.96
2022-09-20T07:58:32.852Z,11.99
2022-09-20T07:59:32.865Z,11.97
2022-09-20T08:00:32.844Z,11.95
2022-09-20T08:01:32.866Z,11.95
2022-09-20T08:02:32.875Z,12.03
2022-09-20T08:03:32.821Z,12.10
2022-09-20T08:04:32.812Z,12.13
2022-09-20T08:05:33.490Z,12.18
2022-09-20T08:06:32.799Z,12.30
2022-09-20T08:07:32.788Z,12.48
2022-09-20T08:08:32.786Z,12.71
2022-09-20T08:09:33.195Z,12.63
2022-09-20T08:10:33.291Z,12.59
2022-09-20T08:11:32.761Z,12.48
2022-09-20T08:14:33.756Z,12.99
2022-09-20T08:15:32.732Z,12.93
2022-09-20T08:16:32.882Z,12.99
2022-09-20T08:17:32.740Z,13.01
2022-09-20T08:18:32.735Z,13.09
2022-09-20T08:19:33.748Z,13.04
2022-09-20T08:20:32.690Z,13.04
2022-09-20T08:21:32.719Z,13.02
2022-09-20T08:22:33.111Z,12.96
2022-09-20T08:23:32.679Z,13.01
2022-09-20T08:24:32.711Z,12.99
2022-09-20T08:25:32.670Z,12.96
2022-09-20T08:26:32.652Z,12.91
2022-09-20T08:27:32.670Z,12.84
2022-09-20T08:28:32.646Z,12.79
2022-09-20T08:29:32.639Z,12.68
2022-09-20T08:30:32.655Z,12.62
2022-09-20T08:31:33.502Z,12.69
2022-09-20T08:32:33.810Z,12.71
2022-09-20T08:33:32.651Z,12.66
2022-09-20T08:34:32.611Z,12.55
2022-09-20T08:35:32.603Z,12.33
2022-09-20T08:36:36.438Z,12.38
2022-09-20T08:37:33.206Z,12.32
2022-09-20T08:40:33.591Z,12.08
2022-09-20T08:41:32.578Z,11.95
2022-09-20T08:42:36.637Z,11.95
2022-09-20T08:43:33.585Z,11.93
2022-09-20T08:44:35.131Z,12.05
2022-09-20T08:45:34.754Z,12.14
2022-09-20T08:46:32.549Z,12.26
2022-09-20T08:47:32.932Z,12.17
2022-09-20T08:48:32.502Z,12.33
2022-09-20T08:49:32.500Z,12.44
2022-09-20T08:50:32.500Z,12.63
2022-09-20T08:51:32.486Z,12.84
2022-09-20T08:52:39.671Z,12.93
2022-09-20T08:53:33.608Z,13.11
2022-09-20T08:54:32.759Z,13.05
2022-09-20T08:55:37.990Z,13.14
2022-09-20T08:56:33.453Z,13.08
2022-09-20T08:57:32.477Z,13.02
2022-09-20T08:58:32.463Z,13.16
2022-09-20T08:59:32.473Z,13.14
2022-09-20T09:00:32.609Z,13.13
2022-09-20T09:01:32.487Z,13.29
2022-09-20T09:02:32.494Z,13.46
2022-09-20T09:03:32.431Z,13.47
2022-09-20T09:04:32.409Z,13.39
2022-09-20T09:05:32.398Z,13.35
2022-09-20T09:06:32.547Z,13.42
2022-09-20T09:07:32.383Z,14.03
2022-09-20T09:08:37.680Z,14.83
2022-09-20T09:09:37.621Z,15.25
2022-09-20T09:10:32.433Z,15.95
2022-09-20T09:11:32.377Z,16.65
2022-09-20T09:12:32.358Z,17.19
2022-09-20T09:13:32.345Z,17.73
2022-09-20T09:14:32.338Z,18.36
2022-09-20T09:15:32.335Z,18.43
2022-09-20T09:16:35.496Z,18.27
2022-09-20T09:17:32.317Z,18.38
2022-09-20T09:18:32.298Z,18.28
2022-09-20T09:19:33.945Z,18.52
2022-09-20T09:20:32.285Z,18.66
2022-09-20T09:21:32.299Z,18.85
2022-09-20T09:22:32.274Z,18.67
2022-09-20T09:23:32.273Z,18.60
2022-09-20T09:24:32.258Z,18.78
2022-09-20T09:25:32.340Z,18.96
2022-09-20T09:26:32.323Z,19.35
2022-09-20T09:27:32.252Z,19.53
2022-09-20T09:28:32.238Z,19.99
2022-09-20T09:29:34.845Z,20.71
2022-09-20T09:30:32.219Z,21.20
2022-09-20T09:31:32.249Z,20.95
2022-09-20T09:32:32.702Z,20.18
2022-09-20T09:33:32.201Z,20.09
2022-09-20T09:34:32.196Z,20.19
2022-09-20T09:35:33.032Z,20.30
2022-09-20T09:36:32.220Z,19.71
2022-09-20T09:37:32.166Z,19.08
2022-09-20T09:38:32.174Z,18.58
2022-09-20T09:39:32.853Z,18.11
2022-09-20T09:40:32.731Z,18.08
2022-09-20T09:41:32.740Z,18.15
2022-09-20T09:42:32.135Z,17.68
2022-09-20T09:43:32.135Z,17.04
2022-09-20T09:44:32.121Z,16.57
2022-09-20T09:45:32.267Z,16.16
2022-09-20T09:46:32.120Z,15.88
2022-09-20T09:47:32.551Z,15.73
2022-09-20T09:48:32.808Z,15.63
2022-09-20T09:49:32.083Z,15.59
2022-09-20T09:50:32.084Z,15.29
2022-09-20T09:51:32.077Z,15.17
2022-09-20T09:52:32.062Z,15.01
2022-09-20T09:53:32.065Z,15.05
2022-09-20T09:54:32.066Z,15.04
2022-09-20T09:55:32.055Z,15.12
2022-09-20T09:56:32.048Z,15.20
2022-09-20T09:57:32.062Z,15.20
2022-09-20T09:58:32.032Z,15.19
2022-09-20T09:59:32.057Z,15.03
2022-09-20T10:00:32.006Z,14.89
2022-09-20T10:01:33.500Z,14.90
2022-09-20T10:02:32.049Z,14.93
2022-09-20T10:03:32.024Z,14.90
2022-09-20T10:04:31.977Z,14.93
2022-09-20T10:05:32.073Z,15.10
2022-09-20T10:06:31.985Z,15.23
2022-09-20T10:07:31.950Z,15.26
2022-09-20T10:08:31.951Z,15.41
2022-09-20T10:09:31.937Z,15.44
2022-09-20T10:10:31.956Z,15.51
2022-09-20T10:11:31.929Z,15.51
2022-09-20T10:12:31.976Z,15.60
2022-09-20T10:13:31.938Z,15.66
2022-09-20T10:14:31.904Z,15.62
2022-09-20T10:15:31.889Z,15.66
2022-09-20T10:16:31.940Z,15.70
2022-09-20T10:17:32.788Z,15.80
2022-09-20T10:18:31.902Z,15.87
2022-09-20T10:19:31.898Z,16.44
2022-09-20T10:20:31.854Z,17.75
2022-09-20T10:21:31.861Z,18.83
2022-09-20T10:22:31.867Z,20.05
2022-09-20T10:24:01.484Z,21.13
2022-09-20T10:24:32.861Z,21.93
2022-09-20T10:25:31.825Z,22.18
2022-09-20T10:26:31.823Z,21.67
2022-09-20T10:27:32.495Z,21.74
2022-09-20T10:28:31.808Z,22.30
2022-09-20T10:29:31.851Z,21.77
2022-09-20T10:30:31.830Z,21.34
2022-09-20T10:31:31.863Z,20.93
2022-09-20T10:32:31.845Z,20.42
2022-09-20T10:33:31.820Z,20.07
2022-09-20T10:34:31.772Z,19.79
2022-09-20T10:35:31.769Z,19.31
2022-09-20T10:36:31.758Z,19.12
2022-09-20T10:37:31.743Z,18.89
2022-09-20T10:38:31.878Z,18.68
2022-09-20T10:39:31.732Z,18.49
2022-09-20T10:40:31.781Z,18.26
2022-09-20T10:41:31.744Z,17.88
2022-09-20T10:42:32.670Z,17.78
2022-09-20T10:43:31.699Z,17.73
2022-09-20T10:44:31.701Z,17.86
2022-09-20T10:46:03.388Z,17.99
2022-09-20T10:46:33.565Z,17.97
2022-09-20T10:47:31.820Z,18.38
2022-09-20T10:48:31.664Z,18.68
2022-09-20T10:49:31.655Z,18.98
2022-09-20T10:50:31.659Z,19.15
2022-09-20T10:51:31.649Z,19.31
2022-09-20T10:52:31.696Z,19.35
2022-09-20T10:53:31.665Z,19.12
2022-09-20T10:54:31.660Z,18.94
2022-09-20T10:55:31.678Z,18.93
2022-09-20T10:56:31.684Z,18.58
2022-09-20T10:57:31.700Z,18.36
2022-09-20T10:58:31.612Z,18.11
2022-09-20T10:59:31.593Z,18.18
2022-09-20T11:00:31.613Z,18.17
2022-09-20T11:01:31.660Z,18.09
2022-09-20T11:02:31.607Z,18.12
2022-09-20T11:03:31.979Z,18.09
2022-09-20T11:04:31.650Z,18.18
2022-09-20T11:05:31.566Z,18.27
2022-09-20T11:06:31.592Z,18.45
2022-09-20T11:07:32.680Z,18.86
2022-09-20T11:08:31.522Z,19.09
2022-09-20T11:09:31.509Z,19.00
2022-09-20T11:10:31.530Z,19.24
2022-09-20T11:11:31.543Z,19.37
2022-09-20T11:12:31.496Z,19.87
2022-09-20T11:13:31.511Z,20.52
2022-09-20T11:14:31.499Z,21.53
2022-09-20T11:15:31.494Z,22.01
2022-09-20T11:16:31.894Z,22.78
2022-09-20T11:17:31.485Z,22.59
2022-09-20T11:18:31.451Z,22.28
2022-09-20T11:19:31.471Z,22.34
2022-09-20T11:20:31.443Z,22.12
2022-09-20T11:21:31.890Z,22.00
2022-09-20T11:22:31.440Z,21.91
2022-09-20T11:23:31.420Z,21.81
2022-09-20T11:24:31.430Z,21.65
2022-09-20T11:25:31.410Z,21.47
2022-09-20T11:26:31.399Z,21.18
2022-09-20T11:27:31.439Z,20.93
2022-09-20T11:28:31.417Z,20.44
2022-09-20T11:29:31.391Z,20.32
2022-09-20T11:30:31.403Z,19.97
2022-09-20T11:31:31.429Z,19.89
2022-09-20T11:32:31.378Z,19.74
2022-09-20T11:33:31.389Z,19.54
2022-09-20T11:34:31.363Z,19.19
2022-09-20T11:35:31.357Z,19.20
2022-09-20T11:36:31.408Z,19.07
2022-09-20T11:37:31.332Z,18.83
2022-09-20T11:38:31.377Z,18.74
2022-09-20T11:39:31.316Z,18.76
2022-09-20T11:40:31.433Z,18.67
2022-09-20T11:41:32.117Z,18.68
2022-09-20T11:42:31.304Z,18.71
2022-09-20T11:43:31.348Z,18.67
2022-09-20T11:44:31.287Z,18.81
2022-09-20T11:45:31.358Z,18.78
2022-09-20T11:46:31.283Z,18.64
2022-09-20T11:47:53.481Z,18.52
2022-09-20T11:48:32.261Z,18.28
2022-09-20T11:49:31.273Z,18.30
2022-09-20T11:50:31.251Z,18.36
2022-09-20T11:51:31.255Z,18.27
2022-09-20T11:52:31.243Z,18.01
2022-09-20T11:53:36.472Z,18.02
2022-09-20T11:54:32.798Z,17.90
2022-09-20T11:55:31.214Z,17.79
2022-09-20T11:56:31.221Z,17.65
2022-09-20T11:57:31.193Z,17.46
2022-09-20T11:58:31.196Z,17.43
2022-09-20T11:59:31.192Z,17.32
2022-09-20T12:00:31.184Z,17.17
2022-09-20T12:01:31.207Z,17.04
2022-09-20T12:02:38.399Z,16.97
2022-09-20T12:03:31.236Z,17.02
2022-09-20T12:04:33.254Z,17.06
2022-09-20T12:05:31.171Z,17.02
2022-09-20T12:06:31.181Z,16.97
2022-09-20T12:07:31.117Z,17.09
2022-09-20T12:08:31.128Z,17.22
2022-09-20T12:09:31.169Z,17.39
2022-09-20T12:10:31.131Z,17.54
2022-09-20T12:11:31.099Z,18.20
2022-09-20T12:12:31.083Z,18.54
2022-09-20T12:13:31.081Z,19.71
2022-09-20T12:14:31.803Z,20.25
2022-09-20T12:15:31.083Z,20.85
2022-09-20T12:16:31.101Z,20.82
2022-09-20T12:17:31.048Z,21.10
2022-09-20T12:18:31.057Z,21.16
2022-09-20T12:19:31.141Z,21.29
2022-09-20T12:20:31.040Z,21.40
2022-09-20T12:21:31.059Z,22.19
2022-09-20T12:22:31.030Z,22.83
2022-09-20T12:23:31.002Z,23.39
2022-09-20T12:24:31.543Z,24.44
2022-09-20T12:25:30.994Z,25.75
2022-09-20T12:26:30.989Z,26.85
2022-09-20T12:27:31.073Z,27.64
2022-09-20T12:28:31.001Z,28.47
2022-09-20T12:29:31.046Z,28.69
2022-09-20T12:30:30.974Z,29.28
2022-09-20T12:31:31.074Z,29.49
2022-09-20T12:32:30.956Z,29.07
2022-09-20T12:33:30.962Z,28.25
2022-09-20T12:34:30.928Z,27.70
2022-09-20T12:35:30.916Z,27.72
2022-09-20T12:36:30.919Z,26.95
2022-09-20T12:37:30.927Z,26.30
2022-09-20T12:38:31.374Z,25.58
2022-09-20T12:39:31.028Z,25.12
2022-09-20T12:40:30.910Z,24.78
2022-09-20T12:41:30.885Z,24.22
2022-09-20T12:42:30.921Z,23.98
2022-09-20T12:43:30.857Z,23.66
2022-09-20T12:44:30.909Z,23.56
2022-09-20T12:45:31.000Z,23.36
2022-09-20T12:46:30.847Z,23.06
2022-09-20T12:47:30.839Z,22.80
2022-09-20T12:48:30.845Z,22.56
2022-09-20T12:49:31.189Z,22.27
2022-09-20T12:50:30.821Z,22.00
2022-09-20T12:51:30.817Z,21.91
2022-09-20T12:52:30.831Z,21.63
2022-09-20T12:53:30.914Z,21.44
2022-09-20T12:54:30.833Z,21.34
2022-09-20T12:55:31.152Z,21.35
2022-09-20T12:56:30.782Z,21.25
2022-09-20T12:57:30.767Z,21.14
2022-09-20T12:58:30.800Z,21.10
2022-09-20T12:59:30.761Z,21.34
2022-09-20T13:00:30.772Z,21.62
2022-09-20T13:01:30.840Z,21.55
2022-09-20T13:02:30.761Z,21.40
2022-09-20T13:03:30.731Z,21.47
2022-09-20T13:04:30.732Z,21.50
2022-09-20T13:05:30.835Z,21.41
2022-09-20T13:06:30.747Z,21.50
2022-09-20T13:07:30.702Z,21.41